createdAt,value
2018-10-19T00:00:34.819Z,40.00
2018-10-19T00:03:07.062Z,40.00
2018-10-19T00:05:39.200Z,43.80
2018-10-19T00:08:11.343Z,41.20
2018-10-19T00:10:43.304Z,42.20
2018-10-19T00:13:15.420Z,43.20
2018-10-19T00:15:47.345Z,43.20
2018-10-19T00:18:19.177Z,43.80
2018-10-19T00:20:51.031Z,41.00
2018-10-19T00:23:23.094Z,42.00
2018-10-19T00:25:55.097Z,42.20
2018-10-19T00:28:27.304Z,42.80
2018-10-19T00:30:59.253Z,43.60
2018-10-19T00:33:31.397Z,43.00
2018-10-19T00:36:04.025Z,42.00
2018-10-19T00:38:36.176Z,43.00
2018-10-19T00:41:08.304Z,41.00
2018-10-19T00:43:41.087Z,43.00
2018-10-19T00:46:13.079Z,44.40
2018-10-19T00:48:45.141Z,42.40
2018-10-19T00:51:17.146Z,44.60
2018-10-19T00:53:49.374Z,41.80
2018-10-19T00:56:21.445Z,39.80
2018-10-19T00:58:53.745Z,43.80
2018-10-19T01:01:25.749Z,44.60
2018-10-19T01:03:57.913Z,43.20
2018-10-19T01:06:30.418Z,41.40
2018-10-19T01:09:02.712Z,40.80
2018-10-19T01:11:34.762Z,41.80
2018-10-19T01:14:07.107Z,41.80
2018-10-19T01:16:39.187Z,41.20
2018-10-19T01:19:11.242Z,40.40
2018-10-19T01:21:44.262Z,41.60
2018-10-19T01:24:16.383Z,41.60
2018-10-19T01:26:48.434Z,40.60
2018-10-19T01:29:20.473Z,44.40
2018-10-19T01:31:52.609Z,44.60
2018-10-19T01:34:24.765Z,42.00
2018-10-19T01:36:57.517Z,52.60
2018-10-19T01:39:29.531Z,47.40
2018-10-19T01:42:01.147Z,52.80
2018-10-19T01:44:34.075Z,64.60
2018-10-19T01:47:06.286Z,49.00
2018-10-19T01:49:38.488Z,50.80
2018-10-19T01:52:10.500Z,48.20
2018-10-19T01:54:42.641Z,43.80
2018-10-19T01:57:14.707Z,43.60
2018-10-19T01:59:46.862Z,40.00
2018-10-19T02:02:19.048Z,42.00
2018-10-19T02:04:50.943Z,38.60
2018-10-19T02:07:23.181Z,39.00
2018-10-19T02:09:55.509Z,38.00
2018-10-19T02:12:27.681Z,39.00
2018-10-19T02:14:59.787Z,40.40
2018-10-19T02:17:31.860Z,40.00
2018-10-19T02:20:04.115Z,40.80
2018-10-19T02:22:36.286Z,38.20
2018-10-19T02:25:08.447Z,39.20
2018-10-19T02:27:40.459Z,41.00
2018-10-19T02:30:12.754Z,38.60
2018-10-19T02:32:44.670Z,39.20
2018-10-19T02:35:16.890Z,39.20
2018-10-19T02:37:49.305Z,37.80
2018-10-19T02:40:21.402Z,39.00
2018-10-19T02:42:53.208Z,40.20
2018-10-19T02:45:26.547Z,41.40
2018-10-19T02:47:58.559Z,43.80
2018-10-19T02:50:30.456Z,47.00
2018-10-19T02:53:02.663Z,46.00
2018-10-19T02:55:34.493Z,43.80
2018-10-19T02:58:06.377Z,45.00
2018-10-19T03:00:38.504Z,45.00
2018-10-19T03:03:10.601Z,43.60
2018-10-19T03:05:43.050Z,43.00
2018-10-19T03:08:15.543Z,46.60
2018-10-19T03:10:47.594Z,51.20
2018-10-19T03:13:19.584Z,48.80
2018-10-19T03:15:51.678Z,51.20
2018-10-19T03:18:23.632Z,53.80
2018-10-19T03:20:55.868Z,39.60
2018-10-19T03:23:27.953Z,44.80
2018-10-19T03:26:00.145Z,50.00
2018-10-19T03:28:32.298Z,49.60
2018-10-19T03:31:04.850Z,50.80
2018-10-19T03:33:36.947Z,47.60
2018-10-19T03:36:09.028Z,54.40
2018-10-19T03:38:41.606Z,52.60
2018-10-19T03:41:13.591Z,54.60
2018-10-19T03:43:45.611Z,49.80
2018-10-19T03:46:18.784Z,53.00
2018-10-19T03:48:50.893Z,49.00
2018-10-19T03:51:22.994Z,53.20
2018-10-19T03:53:55.071Z,51.20
2018-10-19T03:56:27.087Z,54.60
2018-10-19T03:58:59.279Z,53.00
2018-10-19T04:01:31.292Z,54.80
2018-10-19T04:04:03.572Z,55.80
2018-10-19T04:06:35.905Z,50.60
2018-10-19T04:09:12.955Z,52.40
2018-10-19T04:11:45.035Z,57.20
2018-10-19T04:14:16.842Z,56.00
2018-10-19T04:16:48.970Z,57.00
2018-10-19T04:19:21.244Z,59.80
2018-10-19T04:21:53.193Z,60.60
2018-10-19T04:24:25.301Z,62.00
2018-10-19T04:26:57.738Z,56.80
2018-10-19T04:29:29.919Z,59.60
2018-10-19T04:32:01.972Z,63.20
2018-10-19T04:34:34.144Z,68.20
2018-10-19T04:37:07.337Z,65.80
2018-10-19T04:39:39.990Z,64.60
2018-10-19T04:42:12.789Z,64.40
2018-10-19T04:44:44.976Z,63.20
2018-10-19T04:47:17.474Z,62.60
2018-10-19T04:49:49.504Z,64.80
2018-10-19T05:06:42.437Z,61.20
2018-10-19T06:54:29.367Z,43.80
2018-10-19T06:57:01.791Z,44.20
2018-10-19T06:59:34.060Z,37.40
2018-10-19T07:02:06.453Z,40.80
2018-10-19T07:04:39.755Z,39.20
2018-10-19T07:07:12.825Z,43.80
2018-10-19T07:09:46.144Z,38.20
2018-10-19T07:12:18.681Z,36.40
2018-10-19T07:14:51.511Z,34.20
2018-10-19T07:17:24.297Z,33.80
2018-10-19T07:19:56.425Z,35.80
2018-10-19T07:22:28.326Z,32.00
2018-10-19T07:25:00.680Z,29.00
2018-10-19T07:27:32.622Z,34.40
2018-10-19T07:30:05.057Z,33.20
2018-10-19T07:32:37.106Z,33.60
2018-10-19T07:35:09.668Z,34.00
2018-10-19T07:41:38.384Z,29.80
2018-10-19T07:44:10.381Z,38.60
2018-10-19T07:46:42.611Z,33.80
2018-10-19T07:49:14.730Z,31.80
2018-10-19T07:51:46.804Z,29.80
2018-10-19T07:54:18.964Z,31.80
2018-10-19T07:56:51.827Z,30.00
2018-10-19T07:59:23.600Z,28.80
2018-10-19T08:01:55.849Z,30.00
2018-10-19T08:04:27.687Z,29.20
2018-10-19T08:06:59.869Z,28.60
2018-10-19T08:09:32.399Z,29.80
2018-10-19T08:12:04.619Z,31.40
2018-10-19T08:14:36.671Z,29.80
2018-10-19T08:17:08.914Z,29.00
2018-10-19T08:19:40.709Z,26.80
2018-10-19T08:22:12.837Z,28.40
2018-10-19T08:24:44.996Z,25.80
2018-10-19T08:27:17.295Z,27.40
2018-10-19T08:29:49.377Z,28.60
2018-10-19T08:32:21.268Z,28.60
2018-10-19T08:34:53.148Z,26.80
2018-10-19T08:37:25.560Z,28.20
2018-10-19T08:39:58.270Z,27.20
2018-10-19T08:42:30.251Z,28.20
2018-10-19T08:45:02.168Z,26.00
2018-10-19T08:47:34.032Z,26.20
2018-10-19T08:50:06.051Z,28.00
2018-10-19T08:52:38.185Z,27.20
2018-10-19T08:55:10.138Z,27.40
2018-10-19T08:57:43.171Z,27.20
2018-10-19T09:00:15.265Z,25.40
2018-10-19T09:02:47.418Z,25.00
2018-10-19T09:05:19.527Z,26.20
2018-10-19T09:07:51.682Z,25.20
2018-10-19T09:10:24.741Z,26.40
2018-10-19T09:12:57.289Z,25.20
2018-10-19T09:15:29.501Z,25.20
2018-10-19T09:18:01.437Z,23.00
2018-10-19T09:20:33.585Z,26.40
2018-10-19T09:23:06.000Z,25.00
2018-10-19T09:25:38.036Z,24.80
2018-10-19T09:28:10.001Z,24.80
2018-10-19T09:30:42.194Z,24.60
2018-10-19T09:33:14.431Z,24.20
2018-10-19T09:35:46.519Z,22.00
2018-10-19T09:38:18.745Z,24.00
2018-10-19T09:40:51.131Z,22.20
2018-10-19T09:43:23.636Z,25.80
2018-10-19T09:45:55.650Z,26.80
2018-10-19T09:48:27.733Z,26.20
2018-10-19T09:50:59.731Z,21.80
2018-10-19T09:53:31.629Z,22.40
2018-10-19T09:56:03.865Z,25.20
2018-10-19T09:58:35.860Z,23.20
2018-10-19T10:01:12.552Z,24.20
2018-10-19T10:03:44.723Z,25.20
2018-10-19T10:06:16.467Z,27.20
2018-10-19T10:08:48.663Z,27.20
2018-10-19T10:11:21.461Z,27.20
2018-10-19T10:13:53.581Z,28.00
2018-10-19T10:16:25.424Z,27.80
2018-10-19T10:18:57.353Z,26.20
2018-10-19T10:21:28.961Z,27.20
2018-10-19T10:24:01.244Z,23.20
2018-10-19T10:26:33.209Z,27.00
2018-10-19T10:29:05.483Z,28.40
2018-10-19T10:31:37.633Z,28.60
2018-10-19T10:34:09.557Z,28.20
2018-10-19T10:36:41.603Z,28.40
2018-10-19T10:39:15.074Z,29.60
2018-10-19T10:41:47.971Z,29.80
2018-10-19T10:44:20.139Z,27.00
2018-10-19T10:46:52.311Z,29.20
2018-10-19T10:49:24.287Z,29.80
2018-10-19T10:51:56.080Z,29.00
2018-10-19T10:54:28.188Z,29.00
2018-10-19T10:57:00.155Z,29.00
2018-10-19T10:59:32.455Z,28.00
2018-10-19T11:02:04.173Z,28.20
2018-10-19T11:04:36.272Z,29.20
2018-10-19T11:07:08.169Z,29.40
2018-10-19T11:09:40.433Z,29.80
2018-10-19T11:12:12.840Z,30.20
2018-10-19T11:14:44.798Z,31.00
2018-10-19T11:17:16.536Z,30.00
2018-10-19T11:19:48.628Z,31.60
2018-10-19T11:22:20.739Z,30.40
2018-10-19T11:24:52.939Z,31.40
2018-10-19T11:27:24.968Z,31.00
2018-10-19T11:29:57.056Z,33.00
2018-10-19T11:32:29.341Z,34.00
2018-10-19T11:35:01.456Z,38.00
2018-10-19T11:37:33.613Z,39.40
2018-10-19T11:40:30.976Z,39.00
2018-10-19T11:43:03.888Z,41.80
2018-10-19T11:45:36.854Z,43.80
2018-10-19T11:48:08.655Z,46.20
2018-10-19T11:50:40.847Z,48.60
2018-10-19T11:53:12.817Z,96.20
2018-10-19T11:55:45.014Z,71.20
2018-10-19T11:58:17.039Z,76.20
2018-10-19T12:00:48.975Z,85.00
2018-10-19T12:03:20.814Z,84.80
2018-10-19T12:05:52.758Z,71.00
2018-10-19T12:08:24.727Z,65.60
2018-10-19T12:10:56.729Z,63.00
2018-10-19T12:13:28.838Z,63.40
2018-10-19T12:16:01.154Z,58.20
2018-10-19T12:18:33.377Z,49.40
2018-10-19T12:21:05.669Z,55.20
2018-10-19T12:23:37.664Z,54.60
2018-10-19T12:26:09.388Z,48.40
2018-10-19T12:28:41.288Z,53.00
2018-10-19T12:31:13.507Z,48.40
2018-10-19T12:33:45.783Z,47.60
2018-10-19T12:36:17.634Z,47.80
2018-10-19T12:38:49.573Z,52.20
2018-10-19T12:41:21.652Z,48.80
2018-10-19T12:43:54.005Z,47.40
2018-10-19T12:46:38.432Z,51.40
2018-10-19T12:49:11.013Z,46.20
2018-10-19T12:51:42.971Z,44.00
2018-10-19T12:54:14.742Z,41.60
2018-10-19T12:56:46.711Z,40.60
2018-10-19T12:59:18.503Z,41.60
2018-10-19T13:01:50.628Z,44.80
2018-10-19T13:04:22.690Z,42.80
2018-10-19T13:06:55.370Z,43.00
2018-10-19T13:09:27.235Z,41.80
2018-10-19T13:11:59.329Z,44.00
2018-10-19T13:14:31.803Z,41.20
2018-10-19T13:17:03.778Z,44.40
2018-10-19T13:19:35.636Z,40.20
2018-10-19T13:22:07.794Z,37.80
2018-10-19T13:24:39.943Z,41.60
2018-10-19T13:27:12.151Z,41.40
2018-10-19T13:29:44.142Z,44.00
2018-10-19T13:32:16.284Z,41.40
2018-10-19T13:34:48.284Z,45.00
2018-10-19T13:37:20.251Z,49.60
2018-10-19T13:39:52.231Z,50.80
2018-10-19T13:42:24.245Z,53.40
2018-10-19T13:44:56.393Z,51.20
2018-10-19T13:47:28.612Z,51.20
2018-10-19T13:50:00.737Z,55.20
2018-10-19T13:52:33.521Z,49.60
2018-10-19T13:55:05.426Z,54.00
2018-10-19T13:57:37.534Z,53.80
2018-10-19T14:00:09.372Z,53.20
2018-10-19T14:02:41.296Z,52.60
2018-10-19T14:05:13.392Z,53.60
2018-10-19T14:07:46.584Z,51.20
2018-10-19T14:10:18.403Z,56.80
2018-10-19T14:12:50.708Z,55.00
2018-10-19T14:15:23.105Z,51.60
2018-10-19T14:17:55.023Z,47.80
2018-10-19T14:20:26.841Z,53.80
2018-10-19T14:22:59.003Z,56.80
2018-10-19T14:25:30.776Z,54.00
2018-10-19T14:28:02.828Z,57.20
2018-10-19T14:30:34.727Z,52.20
2018-10-19T14:33:06.810Z,56.00
2018-10-19T14:35:38.727Z,56.00
2018-10-19T14:38:10.873Z,57.00
2018-10-19T14:40:42.950Z,49.80
2018-10-19T14:43:16.050Z,56.00
2018-10-19T14:45:48.566Z,56.60
2018-10-19T14:48:20.597Z,56.60
2018-10-19T14:50:52.613Z,58.20
2018-10-19T14:53:24.577Z,54.20
2018-10-19T14:55:56.554Z,53.20
2018-10-19T14:58:28.782Z,56.40
2018-10-19T15:01:00.851Z,56.00
2018-10-19T15:03:33.108Z,56.80
2018-10-19T15:06:04.895Z,57.40
2018-10-19T15:08:38.210Z,54.00
2018-10-19T15:11:10.273Z,57.60
2018-10-19T15:13:42.480Z,54.40
2018-10-19T15:16:15.918Z,59.00
2018-10-19T15:18:48.331Z,59.60
2018-10-19T15:21:20.583Z,58.40
2018-10-19T15:23:52.857Z,61.80
2018-10-19T15:26:25.114Z,64.00
2018-10-19T15:28:56.949Z,58.80
2018-10-19T15:31:28.974Z,64.40
2018-10-19T15:34:00.930Z,63.80
2018-10-19T15:36:32.953Z,62.20
2018-10-19T15:39:06.036Z,64.40
2018-10-19T15:41:37.878Z,64.80
2018-10-19T15:44:09.999Z,64.80
2018-10-19T15:46:42.506Z,59.80
2018-10-19T15:49:14.750Z,55.20
2018-10-19T15:51:46.671Z,57.00
2018-10-19T15:54:18.614Z,55.20
2018-10-19T15:56:50.782Z,58.40
2018-10-19T15:59:23.276Z,53.40
2018-10-19T16:01:55.239Z,57.60
2018-10-19T16:04:27.333Z,60.60
2018-10-19T16:06:59.120Z,58.80
2018-10-19T16:09:32.021Z,57.80
2018-10-19T16:12:04.208Z,55.20
2018-10-19T16:14:36.172Z,56.80
2018-10-19T16:17:08.614Z,59.00
2018-10-19T16:19:40.834Z,56.40
2018-10-19T16:22:12.822Z,59.00
2018-10-19T16:24:44.682Z,58.00
2018-10-19T16:27:17.020Z,56.20
2018-10-19T16:29:49.099Z,54.60
2018-10-19T16:32:21.282Z,57.20
2018-10-19T16:34:53.315Z,58.60
2018-10-19T16:37:25.654Z,57.60
2018-10-19T16:39:57.989Z,53.60
2018-10-19T16:42:30.154Z,56.60
2018-10-19T16:45:02.218Z,58.40
2018-10-19T16:47:35.032Z,56.20
2018-10-19T16:50:07.374Z,56.80
2018-10-19T16:54:03.917Z,54.20
2018-10-19T16:56:36.024Z,58.60
2018-10-19T16:59:07.994Z,56.20
2018-10-19T17:01:40.155Z,61.00
2018-10-19T17:04:12.761Z,62.60
2018-10-19T17:06:45.500Z,73.80
2018-10-19T17:09:17.687Z,67.20
2018-10-19T17:11:50.006Z,66.60
2018-10-19T17:14:21.896Z,65.00
2018-10-19T17:16:53.957Z,64.60
2018-10-19T17:19:27.930Z,62.40
2018-10-19T17:22:00.214Z,58.80
2018-10-19T17:24:31.781Z,61.80
2018-10-19T17:27:03.847Z,63.20
2018-10-19T17:29:35.865Z,68.20
2018-10-19T17:32:07.989Z,62.20
2018-10-19T17:34:39.643Z,61.40
2018-10-19T17:39:31.542Z,57.80
2018-10-19T17:42:03.454Z,63.60
2018-10-19T17:44:35.459Z,63.40
2018-10-19T17:47:07.712Z,61.20
2018-10-19T17:49:40.349Z,66.20
2018-10-19T17:52:12.021Z,71.00
2018-10-19T17:54:43.916Z,63.80
2018-10-19T17:57:16.065Z,67.40
2018-10-19T17:59:48.025Z,66.20
2018-10-19T18:02:19.890Z,67.20
2018-10-19T18:04:51.831Z,70.80
2018-10-19T18:07:23.882Z,72.60
2018-10-19T18:09:55.961Z,63.20
2018-10-19T18:12:28.127Z,67.40
2018-10-19T18:15:00.254Z,72.20
2018-10-19T18:17:32.014Z,73.60
2018-10-19T18:20:04.602Z,68.80
2018-10-19T18:22:36.813Z,67.80
2018-10-19T18:25:09.153Z,65.40
2018-10-19T18:27:41.022Z,71.00
2018-10-19T18:30:14.054Z,68.20
2018-10-19T18:32:46.462Z,71.00
2018-10-19T18:35:18.448Z,64.20
2018-10-19T18:37:50.473Z,66.20
2018-10-19T18:40:22.254Z,68.00
2018-10-19T18:42:54.105Z,64.20
2018-10-19T18:45:26.079Z,66.00
2018-10-19T18:47:58.143Z,67.20
2018-10-19T18:50:30.711Z,68.60
2018-10-19T18:53:02.801Z,66.60
2018-10-19T18:55:35.148Z,65.80
2018-10-19T18:58:07.003Z,72.40
2018-10-19T19:00:38.874Z,64.40
2018-10-19T19:03:11.207Z,64.40
2018-10-19T19:05:43.458Z,64.00
2018-10-19T19:08:15.637Z,66.60
2018-10-19T19:10:47.694Z,69.40
2018-10-19T19:13:24.326Z,62.60
2018-10-19T19:15:56.532Z,70.80
2018-10-19T19:18:28.193Z,70.60
2018-10-19T19:21:00.965Z,70.40
2018-10-19T19:23:37.280Z,72.20
2018-10-19T19:26:14.670Z,71.60
2018-10-19T19:28:46.811Z,66.00
2018-10-19T19:31:18.901Z,71.20
2018-10-19T19:33:55.422Z,66.80
2018-10-19T19:36:27.140Z,68.20
2018-10-19T19:38:59.096Z,69.40
2018-10-19T19:41:36.001Z,68.40
2018-10-19T19:44:07.869Z,67.20
2018-10-19T19:46:39.726Z,69.20
2018-10-19T19:49:16.332Z,69.20
2018-10-19T19:51:49.088Z,68.40
2018-10-19T19:54:21.129Z,67.00
2018-10-19T19:56:53.144Z,66.80
2018-10-19T19:59:25.060Z,72.20
2018-10-19T20:01:57.305Z,71.80
2018-10-19T20:04:29.651Z,71.00
2018-10-19T20:07:01.947Z,70.40
2018-10-19T20:09:34.776Z,71.00
2018-10-19T20:12:07.264Z,74.20
2018-10-19T20:14:39.501Z,77.60
2018-10-19T20:17:11.814Z,74.40
2018-10-19T20:19:43.839Z,76.00
2018-10-19T20:22:16.332Z,78.60
2018-10-19T20:24:48.342Z,71.40
2018-10-19T20:27:20.384Z,73.40
2018-10-19T20:29:52.493Z,71.80
2018-10-19T20:32:24.473Z,68.20
2018-10-19T20:34:56.705Z,75.80
2018-10-19T20:37:28.957Z,74.20
2018-10-19T20:40:01.063Z,76.00
2018-10-19T20:42:33.051Z,76.60
2018-10-19T20:45:05.369Z,77.00
2018-10-19T20:47:37.457Z,73.60
2018-10-19T20:50:09.793Z,78.00
2018-10-19T20:52:42.539Z,80.00
2018-10-19T20:55:15.635Z,80.40
2018-10-19T20:57:47.692Z,76.20
2018-10-19T21:00:19.758Z,81.80
2018-10-19T21:02:51.664Z,77.00
2018-10-19T21:05:23.432Z,77.80
2018-10-19T21:07:55.615Z,83.80
2018-10-19T21:10:28.061Z,81.80
2018-10-19T21:13:00.265Z,83.40
2018-10-19T21:15:32.236Z,81.80
2018-10-19T21:18:04.376Z,84.00
2018-10-19T21:20:36.396Z,83.80
2018-10-19T21:23:08.748Z,83.00
2018-10-19T21:25:40.752Z,80.40
2018-10-19T21:28:13.088Z,78.60
2018-10-19T21:30:45.166Z,82.80
2018-10-19T21:33:17.402Z,88.40
2018-10-19T21:35:49.120Z,81.00
2018-10-19T21:38:21.115Z,83.60
2018-10-19T21:40:52.967Z,82.80
2018-10-19T21:43:25.109Z,84.60
2018-10-19T21:45:56.906Z,87.80
2018-10-19T21:48:28.981Z,84.00
2018-10-19T21:51:00.982Z,81.80
2018-10-19T21:53:33.460Z,86.20
2018-10-19T21:56:05.485Z,81.80
2018-10-19T21:58:37.773Z,86.40
2018-10-19T22:01:09.843Z,86.40
2018-10-19T22:03:41.978Z,82.40
2018-10-19T22:06:13.966Z,84.20
2018-10-19T22:08:45.913Z,79.20
2018-10-19T22:11:18.353Z,83.60
2018-10-19T22:13:50.558Z,85.20
2018-10-19T22:16:22.853Z,87.80
2018-10-19T22:18:54.999Z,93.80
2018-10-19T22:21:27.305Z,88.60
2018-10-19T22:24:00.038Z,88.80
2018-10-19T22:26:32.219Z,89.20
2018-10-19T22:29:04.340Z,86.60
2018-10-19T22:31:36.507Z,88.00
2018-10-19T22:34:08.442Z,87.00
2018-10-19T22:36:40.421Z,87.40
2018-10-19T22:39:12.712Z,79.20
2018-10-19T22:41:44.762Z,90.80
2018-10-19T22:44:18.095Z,85.00
2018-10-19T22:46:50.196Z,88.20
2018-10-19T22:49:22.138Z,88.20
2018-10-19T22:51:54.254Z,83.00
2018-10-19T22:54:26.764Z,87.40
2018-10-19T22:56:58.805Z,90.00
2018-10-19T22:59:30.679Z,89.20
2018-10-19T23:02:02.552Z,90.20
2018-10-19T23:04:34.704Z,89.60
2018-10-19T23:07:07.173Z,86.20
2018-10-19T23:09:39.468Z,91.80
2018-10-19T23:12:11.741Z,85.40
2018-10-19T23:14:44.386Z,91.40
2018-10-19T23:17:16.614Z,90.00
2018-10-19T23:19:48.723Z,85.40
2018-10-19T23:22:20.802Z,85.40
2018-10-19T23:24:53.322Z,88.00
2018-10-19T23:27:25.286Z,91.00
2018-10-19T23:29:57.451Z,90.40
2018-10-19T23:32:29.152Z,93.60
2018-10-19T23:35:01.514Z,95.20
2018-10-19T23:37:33.637Z,95.00
2018-10-19T23:40:05.985Z,95.80
2018-10-19T23:42:38.104Z,89.20
2018-10-19T23:45:10.591Z,93.20
2018-10-19T23:47:42.578Z,98.20
2018-10-19T23:50:13.246Z,99.20
2018-10-19T23:52:45.203Z,98.60
2018-10-19T23:55:17.678Z,95.20
2018-10-19T23:57:49.707Z,99.80
